createdAt,value
2018-09-30T00:00:44.192Z,6.53
2018-09-30T00:03:14.397Z,6.53
2018-09-30T00:05:44.326Z,6.40
2018-09-30T00:08:14.161Z,6.40
2018-09-30T00:10:44.194Z,6.36
2018-09-30T00:13:14.077Z,6.31
2018-09-30T00:15:43.965Z,6.30
2018-09-30T00:18:13.869Z,6.25
2018-09-30T00:20:43.770Z,6.19
2018-09-30T00:23:13.679Z,6.19
2018-09-30T00:25:48.576Z,6.20
2018-09-30T00:28:18.419Z,6.22
2018-09-30T00:30:48.344Z,6.18
2018-09-30T00:33:18.172Z,6.17
2018-09-30T00:35:48.100Z,6.18
2018-09-30T00:38:17.967Z,6.16
2018-09-30T00:40:47.847Z,6.16
2018-09-30T00:43:17.724Z,6.16
2018-09-30T00:45:47.508Z,6.02
2018-09-30T00:48:17.390Z,6.13
2018-09-30T00:50:47.299Z,6.07
2018-09-30T00:53:17.185Z,6.04
2018-09-30T00:55:47.047Z,6.04
2018-09-30T00:58:16.928Z,6.08
2018-09-30T01:00:46.835Z,6.04
2018-09-30T01:03:16.743Z,6.04
2018-09-30T01:05:46.674Z,6.06
2018-09-30T01:08:16.516Z,6.07
2018-09-30T01:10:46.361Z,6.10
2018-09-30T01:13:16.246Z,6.05
2018-09-30T01:15:46.126Z,6.00
2018-09-30T01:18:15.867Z,5.98
2018-09-30T01:20:45.754Z,5.95
2018-09-30T01:23:15.673Z,5.91
2018-09-30T01:25:45.495Z,5.86
2018-09-30T01:28:15.435Z,5.87
2018-09-30T01:30:45.236Z,5.89
2018-09-30T01:33:15.197Z,5.91
2018-09-30T01:35:44.913Z,5.85
2018-09-30T01:38:14.679Z,5.84
2018-09-30T01:40:44.669Z,5.84
2018-09-30T01:43:14.555Z,5.80
2018-09-30T01:45:44.479Z,5.75
2018-09-30T01:48:14.345Z,5.72
2018-09-30T01:50:44.085Z,5.62
2018-09-30T01:53:14.039Z,5.60
2018-09-30T01:55:43.939Z,5.55
2018-09-30T01:58:13.777Z,5.54
2018-09-30T02:00:43.639Z,5.55
2018-09-30T02:03:13.527Z,5.56
2018-09-30T02:05:43.321Z,5.54
2018-09-30T02:08:13.187Z,5.51
2018-09-30T02:10:43.051Z,5.47
2018-09-30T02:13:12.867Z,5.49
2018-09-30T02:15:42.706Z,5.49
2018-09-30T02:18:12.543Z,5.51
2018-09-30T02:20:42.438Z,5.50
2018-09-30T02:23:12.387Z,5.41
2018-09-30T02:25:42.099Z,5.40
2018-09-30T02:28:11.965Z,5.41
2018-09-30T02:30:41.869Z,5.39
2018-09-30T02:33:11.705Z,5.33
2018-09-30T02:35:41.668Z,5.25
2018-09-30T02:38:11.578Z,5.25
2018-09-30T02:40:48.297Z,5.20
2018-09-30T02:43:18.198Z,5.23
2018-09-30T02:45:48.065Z,5.23
2018-09-30T02:48:17.836Z,5.21
2018-09-30T02:50:47.800Z,5.21
2018-09-30T02:53:17.593Z,5.20
2018-09-30T02:55:47.546Z,5.17
2018-09-30T02:58:17.416Z,5.16
2018-09-30T03:00:47.409Z,5.18
2018-09-30T03:03:17.280Z,5.19
2018-09-30T03:05:47.243Z,5.19
2018-09-30T03:08:22.139Z,5.18
2018-09-30T03:10:52.117Z,5.15
2018-09-30T03:13:21.968Z,5.10
2018-09-30T03:15:51.971Z,5.11
2018-09-30T03:18:21.818Z,5.05
2018-09-30T03:20:51.753Z,5.06
2018-09-30T03:23:21.754Z,5.08
2018-09-30T03:25:51.723Z,5.07
2018-09-30T03:28:21.623Z,5.07
2018-09-30T03:30:51.695Z,5.05
2018-09-30T03:33:21.565Z,5.02
2018-09-30T03:35:51.558Z,5.01
2018-09-30T03:38:21.539Z,4.98
2018-09-30T03:40:51.557Z,4.97
2018-09-30T03:43:21.420Z,4.93
2018-09-30T03:45:51.377Z,4.94
2018-09-30T03:48:21.196Z,4.93
2018-09-30T03:50:51.119Z,4.83
2018-09-30T03:53:21.062Z,4.80
2018-09-30T03:55:50.980Z,4.77
2018-09-30T03:58:20.787Z,4.78
2018-09-30T04:00:50.912Z,4.78
2018-09-30T04:03:20.750Z,4.79
2018-09-30T04:05:50.581Z,4.75
2018-09-30T04:08:20.462Z,4.75
2018-09-30T04:10:50.395Z,4.75
2018-09-30T04:13:20.388Z,4.76
2018-09-30T04:15:50.349Z,4.77
2018-09-30T04:18:20.230Z,4.79
2018-09-30T04:20:50.055Z,4.79
2018-09-30T04:23:19.969Z,4.76
2018-09-30T04:25:50.219Z,4.78
2018-09-30T04:28:20.104Z,4.71
2018-09-30T04:30:50.009Z,4.63
2018-09-30T04:33:19.864Z,4.62
2018-09-30T04:35:49.771Z,4.63
2018-09-30T04:38:19.608Z,4.58
2018-09-30T04:40:49.494Z,4.61
2018-09-30T04:43:19.417Z,4.63
2018-09-30T04:45:49.466Z,4.60
2018-09-30T04:48:19.318Z,4.58
2018-09-30T04:50:49.206Z,4.61
2018-09-30T04:53:19.011Z,4.59
2018-09-30T04:55:48.875Z,4.60
2018-09-30T04:58:18.830Z,4.58
2018-09-30T05:00:48.700Z,4.58
2018-09-30T05:03:18.623Z,4.63
2018-09-30T05:05:49.497Z,4.67
2018-09-30T05:08:19.430Z,4.72
2018-09-30T05:10:49.263Z,4.80
2018-09-30T05:13:19.271Z,4.83
2018-09-30T05:15:49.187Z,4.99
2018-09-30T05:18:19.129Z,5.22
2018-09-30T05:20:49.078Z,5.31
2018-09-30T05:23:18.996Z,5.35
2018-09-30T05:25:48.727Z,5.58
2018-09-30T05:28:18.506Z,5.92
2018-09-30T05:30:48.277Z,6.36
2018-09-30T05:33:18.183Z,6.74
2018-09-30T05:35:48.098Z,7.07
2018-09-30T05:38:18.241Z,7.28
2018-09-30T05:40:48.187Z,7.29
2018-09-30T05:43:18.114Z,7.22
2018-09-30T05:45:47.898Z,7.08
2018-09-30T05:48:17.805Z,7.00
2018-09-30T05:50:48.612Z,6.95
2018-09-30T05:53:18.585Z,6.90
2018-09-30T05:55:48.349Z,6.85
2018-09-30T05:58:18.291Z,6.83
2018-09-30T06:00:48.188Z,6.81
2018-09-30T06:03:18.172Z,6.86
2018-09-30T06:05:48.159Z,6.98
2018-09-30T06:08:18.022Z,7.05
2018-09-30T06:10:47.877Z,7.19
2018-09-30T06:13:17.803Z,7.30
2018-09-30T06:15:47.751Z,7.44
2018-09-30T06:18:17.660Z,7.57
2018-09-30T06:20:47.493Z,7.68
2018-09-30T06:23:17.378Z,7.74
2018-09-30T06:25:47.313Z,7.83
2018-09-30T06:28:17.283Z,7.87
2018-09-30T06:30:47.225Z,7.92
2018-09-30T06:33:17.118Z,8.03
2018-09-30T06:35:47.023Z,8.11
2018-09-30T06:38:16.909Z,8.20
2018-09-30T06:40:46.839Z,8.27
2018-09-30T06:43:16.629Z,8.25
2018-09-30T06:45:46.545Z,8.26
2018-09-30T06:48:16.406Z,8.29
2018-09-30T06:50:46.341Z,8.37
2018-09-30T06:53:16.220Z,8.39
2018-09-30T06:55:46.078Z,8.44
2018-09-30T06:58:15.859Z,8.51
2018-09-30T07:00:45.717Z,8.60
2018-09-30T07:03:15.637Z,8.59
2018-09-30T07:05:46.539Z,8.68
2018-09-30T07:08:16.577Z,8.72
2018-09-30T07:10:46.482Z,8.83
2018-09-30T07:13:16.373Z,8.93
2018-09-30T07:15:46.411Z,9.07
2018-09-30T07:18:16.612Z,9.08
2018-09-30T07:20:46.476Z,9.09
2018-09-30T07:23:16.468Z,9.19
2018-09-30T07:25:46.426Z,9.26
2018-09-30T07:28:16.368Z,9.30
2018-09-30T07:30:46.262Z,9.38
2018-09-30T07:33:16.197Z,9.46
2018-09-30T07:35:46.229Z,9.59
2018-09-30T07:38:16.267Z,9.68
2018-09-30T07:40:46.218Z,9.78
2018-09-30T07:43:17.178Z,9.98
2018-09-30T07:45:47.037Z,10.01
2018-09-30T07:48:16.945Z,10.02
2018-09-30T07:50:46.863Z,10.02
2018-09-30T07:53:16.861Z,10.20
2018-09-30T07:55:46.783Z,10.36
2018-09-30T07:58:16.770Z,10.45
2018-09-30T08:00:46.637Z,10.49
2018-09-30T08:03:16.573Z,10.45
2018-09-30T08:05:46.475Z,10.57
2018-09-30T08:08:16.775Z,10.67
2018-09-30T08:10:46.812Z,10.87
2018-09-30T08:13:16.638Z,11.08
2018-09-30T08:15:46.965Z,11.37
2018-09-30T08:18:17.197Z,11.68
2018-09-30T08:20:47.097Z,11.95
2018-09-30T08:23:17.001Z,12.29
2018-09-30T08:25:46.954Z,12.66
2018-09-30T08:28:16.915Z,12.99
2018-09-30T08:30:46.882Z,13.27
2018-09-30T08:33:16.719Z,13.50
2018-09-30T08:35:51.526Z,13.72
2018-09-30T08:38:29.483Z,13.96
2018-09-30T08:41:02.123Z,14.18
2018-09-30T08:43:33.696Z,14.33
2018-09-30T08:46:03.573Z,14.52
2018-09-30T08:48:33.491Z,14.75
2018-09-30T08:51:03.367Z,14.91
2018-09-30T08:53:33.672Z,15.00
2018-09-30T08:56:03.576Z,15.17
2018-09-30T08:58:33.515Z,15.23
2018-09-30T09:01:03.409Z,15.12
2018-09-30T09:03:33.387Z,15.22
2018-09-30T09:06:03.197Z,15.22
2018-09-30T09:08:33.079Z,15.32
2018-09-30T09:11:02.885Z,15.35
2018-09-30T09:13:32.957Z,15.42
2018-09-30T09:16:02.803Z,15.37
2018-09-30T09:18:32.795Z,15.27
2018-09-30T09:21:02.684Z,15.42
2018-09-30T09:23:32.547Z,15.58
2018-09-30T09:26:02.423Z,15.67
2018-09-30T09:28:32.286Z,15.63
2018-09-30T09:31:02.199Z,15.67
2018-09-30T09:33:32.194Z,15.58
2018-09-30T09:36:02.243Z,15.59
2018-09-30T09:38:32.738Z,15.60
2018-09-30T09:41:02.675Z,15.52
2018-09-30T09:43:32.484Z,15.55
2018-09-30T09:46:02.420Z,15.48
2018-09-30T09:48:32.270Z,15.48
2018-09-30T09:51:02.786Z,15.56
2018-09-30T09:53:32.833Z,15.50
2018-09-30T09:56:02.804Z,15.40
2018-09-30T09:58:32.867Z,15.51
2018-09-30T10:01:08.540Z,15.36
2018-09-30T10:03:41.005Z,15.38
2018-09-30T10:06:10.835Z,15.41
2018-09-30T10:08:40.686Z,15.37
2018-09-30T10:11:10.794Z,15.37
2018-09-30T10:13:42.006Z,15.37
2018-09-30T10:16:12.383Z,15.34
2018-09-30T10:18:42.409Z,15.31
2018-09-30T10:21:12.355Z,15.37
2018-09-30T10:23:42.281Z,15.33
2018-09-30T10:26:13.003Z,15.35
2018-09-30T10:28:42.815Z,15.13
2018-09-30T10:31:12.721Z,15.08
2018-09-30T10:33:42.478Z,15.04
2018-09-30T10:36:12.349Z,14.95
2018-09-30T10:38:42.378Z,14.78
2018-09-30T10:41:12.431Z,14.77
2018-09-30T10:43:42.215Z,14.82
2018-09-30T10:46:12.018Z,14.77
2018-09-30T10:48:41.812Z,14.78
2018-09-30T10:51:11.739Z,14.87
2018-09-30T10:53:41.563Z,14.86
2018-09-30T10:56:11.374Z,14.73
2018-09-30T10:58:41.263Z,14.78
2018-09-30T11:01:11.067Z,14.69
2018-09-30T11:03:40.883Z,14.63
2018-09-30T11:06:11.248Z,14.61
2018-09-30T11:08:41.073Z,14.65
2018-09-30T11:11:10.897Z,14.58
2018-09-30T11:13:42.518Z,14.65
2018-09-30T11:16:12.368Z,14.63
2018-09-30T11:18:42.285Z,14.56
2018-09-30T11:21:12.191Z,14.64
2018-09-30T11:23:42.054Z,14.65
2018-09-30T11:26:11.898Z,14.53
2018-09-30T11:28:41.803Z,14.52
2018-09-30T11:31:11.664Z,14.55
2018-09-30T11:33:41.522Z,14.59
2018-09-30T11:36:11.364Z,14.57
2018-09-30T11:38:41.252Z,14.63
2018-09-30T11:41:11.141Z,14.69
2018-09-30T11:43:40.986Z,14.62
2018-09-30T11:46:10.743Z,14.63
2018-09-30T11:48:40.570Z,14.81
2018-09-30T11:51:10.354Z,14.62
2018-09-30T11:53:40.213Z,14.60
2018-09-30T11:56:10.091Z,14.51
2018-09-30T11:58:39.963Z,12.29
2018-09-30T12:01:10.045Z,14.48
2018-09-30T12:03:39.897Z,14.45
2018-09-30T12:06:09.800Z,14.54
2018-09-30T12:08:39.724Z,14.56
2018-09-30T12:11:09.506Z,14.55
2018-09-30T12:13:40.113Z,14.61
2018-09-30T12:16:09.794Z,14.61
2018-09-30T12:18:39.646Z,14.58
2018-09-30T12:21:09.476Z,14.55
2018-09-30T12:23:39.280Z,14.57
2018-09-30T12:26:09.289Z,14.55
2018-09-30T12:28:39.156Z,14.60
2018-09-30T12:31:08.965Z,14.63
2018-09-30T12:33:38.865Z,14.67
2018-09-30T12:36:08.647Z,14.71
2018-09-30T12:38:38.589Z,14.78
2018-09-30T12:41:08.590Z,14.76
2018-09-30T12:43:38.447Z,14.71
2018-09-30T12:46:08.235Z,14.69
2018-09-30T12:48:38.050Z,14.70
2018-09-30T12:51:08.390Z,14.72
2018-09-30T12:53:38.198Z,14.72
2018-09-30T12:56:07.943Z,14.72
2018-09-30T12:58:37.878Z,14.69
2018-09-30T13:01:07.649Z,14.71
2018-09-30T13:03:37.533Z,14.74
2018-09-30T13:06:07.664Z,14.74
2018-09-30T13:08:37.519Z,14.69
2018-09-30T13:11:07.462Z,14.68
2018-09-30T13:13:37.340Z,14.64
2018-09-30T13:16:07.049Z,14.62
2018-09-30T13:18:36.891Z,14.61
2018-09-30T13:21:06.819Z,14.61
2018-09-30T13:23:36.546Z,14.59
2018-09-30T13:26:06.375Z,14.63
2018-09-30T13:28:36.900Z,14.59
2018-09-30T13:31:06.671Z,14.50
2018-09-30T13:33:36.553Z,14.42
2018-09-30T13:36:06.409Z,14.39
2018-09-30T13:38:36.285Z,14.40
2018-09-30T13:41:12.462Z,14.39
2018-09-30T13:43:42.155Z,14.38
2018-09-30T13:46:11.822Z,14.44
2018-09-30T13:48:41.511Z,14.38
2018-09-30T13:51:11.257Z,14.31
2018-09-30T13:53:40.911Z,14.31
2018-09-30T13:56:10.649Z,14.28
2018-09-30T13:58:40.339Z,14.27
2018-09-30T14:01:09.980Z,14.29
2018-09-30T14:03:39.663Z,14.29
2018-09-30T14:06:09.332Z,14.42
2018-09-30T14:08:38.952Z,14.53
2018-09-30T14:11:09.040Z,14.42
2018-09-30T14:13:38.796Z,14.42
2018-09-30T14:16:08.747Z,14.38
2018-09-30T14:18:38.415Z,14.38
2018-09-30T14:21:08.119Z,14.37
2018-09-30T14:23:38.289Z,14.32
2018-09-30T14:26:08.490Z,14.29
2018-09-30T14:28:38.180Z,14.29
2018-09-30T14:31:07.875Z,14.24
2018-09-30T14:33:37.640Z,14.19
2018-09-30T14:36:07.461Z,14.18
2018-09-30T14:38:37.552Z,14.17
2018-09-30T14:41:07.333Z,14.10
2018-09-30T14:43:37.126Z,14.09
2018-09-30T14:46:06.796Z,14.08
2018-09-30T14:48:36.516Z,14.06
2018-09-30T14:51:06.361Z,14.04
2018-09-30T14:53:36.125Z,14.02
2018-09-30T14:56:06.095Z,14.00
2018-09-30T14:58:35.841Z,13.95
2018-09-30T15:01:05.668Z,13.91
2018-09-30T15:03:35.489Z,13.87
2018-09-30T15:06:05.305Z,13.85
2018-09-30T15:08:35.077Z,13.93
2018-09-30T15:11:04.814Z,13.95
2018-09-30T15:13:34.660Z,13.91
2018-09-30T15:16:04.857Z,13.89
2018-09-30T15:18:35.290Z,13.89
2018-09-30T15:21:05.217Z,13.88
2018-09-30T15:23:35.105Z,13.84
2018-09-30T15:26:04.986Z,13.82
2018-09-30T15:28:34.836Z,13.83
2018-09-30T15:31:04.681Z,13.84
2018-09-30T15:33:34.426Z,13.85
2018-09-30T15:36:04.390Z,13.89
2018-09-30T15:38:34.181Z,13.84
2018-09-30T15:41:05.902Z,13.83
2018-09-30T15:43:35.772Z,13.81
2018-09-30T15:46:05.813Z,13.78
2018-09-30T15:48:35.711Z,13.82
2018-09-30T15:51:05.709Z,13.89
2018-09-30T15:53:35.568Z,13.91
2018-09-30T15:56:05.469Z,13.87
2018-09-30T15:58:36.300Z,13.81
2018-09-30T16:01:06.262Z,13.85
2018-09-30T16:03:36.191Z,13.88
2018-09-30T16:06:05.992Z,13.83
2018-09-30T16:08:35.907Z,13.75
2018-09-30T16:11:05.999Z,13.64
2018-09-30T16:13:35.930Z,13.54
2018-09-30T16:16:06.019Z,13.41
2018-09-30T16:18:36.830Z,13.28
2018-09-30T16:21:07.286Z,13.16
2018-09-30T16:23:37.145Z,13.06
2018-09-30T16:26:07.501Z,12.97
2018-09-30T16:28:37.903Z,12.85
2018-09-30T16:31:07.853Z,12.74
2018-09-30T16:33:37.909Z,12.64
2018-09-30T16:36:08.157Z,10.58
2018-09-30T16:38:38.374Z,12.56
2018-09-30T16:41:09.025Z,12.66
2018-09-30T16:43:39.064Z,12.58
2018-09-30T16:46:09.173Z,12.43
2018-09-30T16:48:39.336Z,12.31
2018-09-30T16:51:09.694Z,12.22
2018-09-30T16:53:40.051Z,12.13
2018-09-30T16:56:10.055Z,12.06
2018-09-30T16:58:39.955Z,12.01
2018-09-30T17:01:09.918Z,11.94
2018-09-30T17:03:39.856Z,11.89
2018-09-30T17:06:10.075Z,11.80
2018-09-30T17:08:40.361Z,11.75
2018-09-30T17:11:10.260Z,11.68
2018-09-30T17:13:40.160Z,11.62
2018-09-30T17:16:10.686Z,11.57
2018-09-30T17:18:40.846Z,11.49
2018-09-30T17:21:10.741Z,11.43
2018-09-30T17:23:40.650Z,11.41
2018-09-30T17:26:11.240Z,11.35
2018-09-30T17:28:42.638Z,11.28
2018-09-30T17:31:12.982Z,11.20
2018-09-30T17:33:42.922Z,11.02
2018-09-30T17:36:13.219Z,10.97
2018-09-30T17:38:43.318Z,10.95
2018-09-30T17:41:14.115Z,10.94
2018-09-30T17:43:44.276Z,10.92
2018-09-30T17:46:15.797Z,10.88
2018-09-30T17:48:46.147Z,10.86
2018-09-30T17:51:17.362Z,10.89
2018-09-30T17:53:49.285Z,10.90
2018-09-30T17:56:19.617Z,10.84
2018-09-30T17:58:51.662Z,10.84
2018-09-30T18:01:25.218Z,10.81
2018-09-30T18:03:57.344Z,10.72
2018-09-30T18:06:28.303Z,10.72
2018-09-30T18:09:02.341Z,10.63
2018-09-30T18:11:33.176Z,10.59
2018-09-30T18:14:04.906Z,10.58
2018-09-30T18:16:37.693Z,10.59
2018-09-30T18:19:08.021Z,10.52
2018-09-30T18:21:39.391Z,10.49
2018-09-30T18:24:10.042Z,10.47
2018-09-30T18:26:40.056Z,10.41
2018-09-30T18:29:11.164Z,10.39
2018-09-30T18:31:41.871Z,10.32
2018-09-30T18:34:11.652Z,10.22
2018-09-30T18:36:41.840Z,10.13
2018-09-30T18:39:13.243Z,10.13
2018-09-30T18:41:44.445Z,10.07
2018-09-30T18:44:15.618Z,10.01
2018-09-30T18:46:46.140Z,9.94
2018-09-30T18:49:16.770Z,9.90
2018-09-30T18:51:47.131Z,9.90
2018-09-30T18:54:17.428Z,9.85
2018-09-30T18:56:47.760Z,9.80
2018-09-30T18:59:17.801Z,9.68
2018-09-30T19:01:48.011Z,9.66
2018-09-30T19:04:18.140Z,9.71
2018-09-30T19:06:48.102Z,9.63
2018-09-30T19:09:18.429Z,9.58
2018-09-30T19:11:48.319Z,9.62
2018-09-30T19:14:18.218Z,9.64
2018-09-30T19:16:49.303Z,9.76
2018-09-30T19:19:19.139Z,9.67
2018-09-30T19:21:49.280Z,9.59
2018-09-30T19:24:20.342Z,9.55
2018-09-30T19:26:50.739Z,9.52
2018-09-30T19:29:20.876Z,9.46
2018-09-30T19:31:50.807Z,9.41
2018-09-30T19:34:20.932Z,9.38
2018-09-30T19:36:52.550Z,9.32
2018-09-30T19:39:23.030Z,9.26
2018-09-30T19:41:53.051Z,9.28
2018-09-30T19:44:23.367Z,9.25
2018-09-30T19:46:53.431Z,9.20
2018-09-30T19:49:23.297Z,9.28
2018-09-30T19:51:53.217Z,9.59
2018-09-30T19:54:23.131Z,9.52
2018-09-30T19:56:53.204Z,9.41
2018-09-30T19:59:23.444Z,9.35
2018-09-30T20:01:56.460Z,9.30
2018-09-30T20:04:28.103Z,9.25
2018-09-30T20:06:59.288Z,9.18
2018-09-30T20:09:30.703Z,9.10
2018-09-30T20:12:01.292Z,2.52
2018-09-30T20:14:32.478Z,8.98
2018-09-30T20:17:03.392Z,8.97
2018-09-30T20:19:33.842Z,8.87
2018-09-30T20:22:04.625Z,8.87
2018-09-30T20:24:38.623Z,8.86
2018-09-30T20:27:09.113Z,8.81
2018-09-30T20:29:39.058Z,8.75
2018-09-30T20:32:08.963Z,8.66
2018-09-30T20:34:39.463Z,8.63
2018-09-30T20:37:09.966Z,8.61
2018-09-30T20:39:40.172Z,8.72
2018-09-30T20:42:10.278Z,8.63
2018-09-30T20:44:40.313Z,8.61
2018-09-30T20:47:10.725Z,8.57
2018-09-30T20:49:41.603Z,8.52
2018-09-30T20:52:11.483Z,8.51
2018-09-30T20:54:41.299Z,8.46
2018-09-30T20:57:11.127Z,8.43
2018-09-30T20:59:41.000Z,8.41
2018-09-30T21:02:11.003Z,8.35
2018-09-30T21:04:41.519Z,8.32
2018-09-30T21:07:11.903Z,8.31
2018-09-30T21:09:42.016Z,8.28
2018-09-30T21:12:11.876Z,8.24
2018-09-30T21:14:42.076Z,8.24
2018-09-30T21:17:12.026Z,8.24
2018-09-30T21:19:41.903Z,8.25
2018-09-30T21:22:12.738Z,8.25
2018-09-30T21:24:42.617Z,8.24
2018-09-30T21:27:12.395Z,8.25
2018-09-30T21:29:42.210Z,8.22
2018-09-30T21:32:12.051Z,8.22
2018-09-30T21:34:41.891Z,8.19
2018-09-30T21:37:11.659Z,8.16
2018-09-30T21:39:41.515Z,8.10
2018-09-30T21:42:11.444Z,8.10
2018-09-30T21:44:41.203Z,8.08
2018-09-30T21:47:11.147Z,8.05
2018-09-30T21:49:41.006Z,8.01
2018-09-30T21:52:10.823Z,8.08
2018-09-30T21:54:40.723Z,8.00
2018-09-30T21:57:10.634Z,7.91
2018-09-30T21:59:40.589Z,7.89
2018-09-30T22:02:10.449Z,7.85
2018-09-30T22:04:40.286Z,7.88
2018-09-30T22:07:10.143Z,7.87
2018-09-30T22:09:39.987Z,7.86
2018-09-30T22:12:09.898Z,7.82
2018-09-30T22:14:39.795Z,7.80
2018-09-30T22:17:10.096Z,7.78
2018-09-30T22:19:39.996Z,7.77
2018-09-30T22:22:09.822Z,7.75
2018-09-30T22:24:39.749Z,7.76
2018-09-30T22:27:09.597Z,7.72
2018-09-30T22:29:39.527Z,7.74
2018-09-30T22:32:09.529Z,7.74
2018-09-30T22:34:39.388Z,7.70
2018-09-30T22:37:09.263Z,7.69
2018-09-30T22:39:39.173Z,7.70
2018-09-30T22:42:09.002Z,7.70
2018-09-30T22:44:38.911Z,7.65
2018-09-30T22:47:09.419Z,7.64
2018-09-30T22:49:45.577Z,7.61
2018-09-30T22:52:15.457Z,7.63
2018-09-30T22:54:45.357Z,7.61
2018-09-30T22:57:15.138Z,7.57
2018-09-30T22:59:44.970Z,7.54
2018-09-30T23:02:14.857Z,7.50
2018-09-30T23:04:44.808Z,7.44
2018-09-30T23:07:14.580Z,7.43
2018-09-30T23:09:44.402Z,7.43
2018-09-30T23:12:14.217Z,7.44
2018-09-30T23:14:44.077Z,7.42
2018-09-30T23:17:13.977Z,7.42
2018-09-30T23:19:43.895Z,7.38
2018-09-30T23:22:13.797Z,7.34
2018-09-30T23:24:43.617Z,7.34
2018-09-30T23:27:13.437Z,7.28
2018-09-30T23:29:43.318Z,7.21
2018-09-30T23:32:13.229Z,7.17
2018-09-30T23:34:43.045Z,7.16
2018-09-30T23:37:12.880Z,7.13
2018-09-30T23:39:42.750Z,7.10
2018-09-30T23:42:12.538Z,7.05
2018-09-30T23:44:42.326Z,7.05
2018-09-30T23:47:12.184Z,7.02
2018-09-30T23:49:41.929Z,7.02
2018-09-30T23:52:11.738Z,7.05
2018-09-30T23:54:41.587Z,7.06
2018-09-30T23:57:11.435Z,7.07
2018-09-30T23:59:41.301Z,7.06
